createdAt,value
2018-10-17T04:00:45.894Z,31.90
2018-10-17T04:03:14.133Z,31.23
2018-10-17T04:05:42.617Z,32.67
2018-10-17T04:08:10.790Z,32.53
2018-10-17T04:10:38.920Z,32.17
2018-10-17T04:13:07.086Z,32.90
2018-10-17T04:15:35.461Z,29.00
2018-10-17T04:18:03.589Z,29.90
2018-10-17T04:20:31.745Z,27.60
2018-10-17T04:22:59.910Z,34.17
2018-10-17T04:25:28.044Z,29.90
2018-10-17T04:27:56.193Z,31.10
2018-10-17T04:30:24.589Z,30.30
2018-10-17T04:32:52.817Z,30.93
2018-10-17T04:35:21.067Z,31.70
2018-10-17T04:37:49.121Z,28.80
2018-10-17T04:40:17.265Z,29.60
2018-10-17T04:42:46.318Z,32.33
2018-10-17T04:45:14.461Z,33.80
2018-10-17T04:47:42.764Z,33.53
2018-10-17T04:50:11.540Z,34.07
2018-10-17T04:52:40.276Z,36.97
2018-10-17T04:55:09.549Z,29.60
2018-10-17T04:57:37.701Z,30.73
2018-10-17T05:00:07.890Z,31.23
2018-10-17T05:02:36.157Z,33.90
2018-10-17T05:05:04.437Z,33.63
2018-10-17T05:07:32.558Z,34.60
2018-10-17T05:10:00.722Z,34.13
2018-10-17T05:12:28.873Z,34.47
2018-10-17T05:14:57.004Z,30.53
2018-10-17T05:17:25.197Z,36.53
2018-10-17T05:19:53.370Z,33.50
2018-10-17T05:22:21.641Z,31.10
2018-10-17T05:24:49.917Z,31.70
2018-10-17T05:27:18.049Z,35.33
2018-10-17T05:29:46.289Z,32.60
2018-10-17T05:32:14.368Z,35.40
2018-10-17T05:34:42.532Z,32.33
2018-10-17T05:37:11.345Z,32.00
2018-10-17T05:39:39.437Z,31.87
2018-10-17T05:42:07.568Z,32.83
2018-10-17T05:44:35.732Z,35.93
2018-10-17T05:47:04.089Z,33.23
2018-10-17T05:49:32.194Z,37.50
2018-10-17T05:52:00.325Z,31.10
2018-10-17T05:54:28.538Z,36.50
2018-10-17T05:56:56.776Z,34.70
2018-10-17T05:59:25.346Z,32.90
2018-10-17T06:01:53.610Z,35.77
2018-10-17T06:04:21.741Z,33.90
2018-10-17T06:06:49.918Z,29.27
2018-10-17T06:09:18.063Z,33.80
2018-10-17T06:11:46.418Z,32.27
2018-10-17T06:14:16.584Z,32.73
2018-10-17T06:16:45.680Z,31.13
2018-10-17T06:19:14.480Z,35.63
2018-10-17T06:21:43.120Z,32.20
2018-10-17T06:24:11.332Z,30.03
2018-10-17T06:26:39.781Z,35.68
2018-10-17T06:29:08.060Z,29.93
2018-10-17T06:31:36.158Z,32.53
2018-10-17T06:34:04.449Z,30.73
2018-10-17T06:36:32.562Z,35.50
2018-10-17T06:39:00.730Z,37.50
2018-10-17T06:41:28.878Z,38.10
2018-10-17T06:43:57.089Z,37.93
2018-10-17T06:46:25.195Z,38.73
2018-10-17T06:48:53.376Z,33.87
2018-10-17T06:51:21.660Z,35.83
2018-10-17T06:53:49.810Z,30.43
2018-10-17T06:56:17.884Z,30.33
2018-10-17T06:58:46.029Z,34.50
2018-10-17T07:01:14.417Z,34.73
2018-10-17T07:03:42.428Z,33.33
2018-10-17T07:06:10.580Z,36.10
2018-10-17T07:08:38.820Z,34.03
2018-10-17T07:11:07.012Z,37.23
2018-10-17T07:13:35.100Z,38.30
2018-10-17T07:16:03.325Z,33.67
2018-10-17T07:18:31.629Z,39.90
2018-10-17T07:20:59.824Z,35.33
2018-10-17T07:23:27.992Z,36.20
2018-10-17T07:25:56.177Z,33.37
2018-10-17T07:28:24.334Z,29.63
2018-10-17T07:30:52.492Z,28.90
2018-10-17T07:33:20.727Z,32.13
2018-10-17T07:35:48.968Z,32.23
2018-10-17T07:38:17.113Z,33.10
2018-10-17T07:40:45.376Z,31.73
2018-10-17T07:43:16.324Z,30.27
2018-10-17T07:45:44.538Z,34.23
2018-10-17T07:48:12.786Z,39.13
2018-10-17T07:50:41.009Z,36.13
2018-10-17T07:53:09.185Z,31.60
2018-10-17T07:55:37.448Z,37.57
2018-10-17T07:58:05.992Z,33.20
2018-10-17T08:00:34.142Z,41.93
2018-10-17T08:03:02.498Z,30.53
2018-10-17T08:05:30.661Z,35.20
2018-10-17T08:07:58.813Z,35.70
2018-10-17T08:10:26.997Z,29.70
2018-10-17T08:12:55.163Z,31.97
2018-10-17T08:15:23.328Z,30.47
2018-10-17T08:17:51.500Z,33.00
2018-10-17T08:20:19.702Z,35.93
2018-10-17T08:22:47.852Z,34.77
2018-10-17T08:25:16.045Z,31.70
2018-10-17T08:27:44.275Z,29.70
2018-10-17T08:30:12.612Z,28.73
2018-10-17T08:32:40.715Z,27.77
2018-10-17T08:35:08.891Z,31.63
2018-10-17T08:37:37.753Z,24.53
2018-10-17T08:40:06.441Z,26.13
2018-10-17T08:42:34.567Z,27.23
2018-10-17T08:45:02.880Z,26.87
2018-10-17T08:47:30.978Z,25.07
2018-10-17T08:49:59.153Z,26.57
2018-10-17T08:52:27.310Z,24.83
2018-10-17T08:54:55.460Z,23.00
2018-10-17T08:57:23.620Z,23.73
2018-10-17T08:59:51.792Z,23.37
2018-10-17T09:02:19.964Z,29.80
2018-10-17T09:04:48.289Z,22.23
2018-10-17T09:07:16.496Z,23.60
2018-10-17T09:09:44.684Z,24.63
2018-10-17T09:12:13.059Z,24.20
2018-10-17T09:14:41.160Z,25.87
2018-10-17T09:17:09.360Z,24.83
2018-10-17T09:19:37.674Z,25.50
2018-10-17T09:22:06.347Z,25.10
2018-10-17T09:24:34.198Z,20.87
2018-10-17T09:27:02.367Z,22.87
2018-10-17T09:29:30.513Z,23.70
2018-10-17T09:31:58.667Z,28.07
2018-10-17T09:34:26.825Z,25.83
2018-10-17T09:36:54.981Z,26.87
2018-10-17T09:39:23.165Z,26.77
2018-10-17T09:41:51.371Z,24.40
2018-10-17T09:44:19.524Z,25.30
2018-10-17T09:46:47.678Z,23.57
2018-10-17T09:49:15.948Z,21.20
2018-10-17T09:51:44.125Z,27.13
2018-10-17T09:54:12.340Z,23.90
2018-10-17T09:56:40.494Z,27.30
2018-10-17T09:59:08.649Z,24.77
2018-10-17T10:01:42.294Z,29.27
2018-10-17T10:04:10.483Z,24.20
2018-10-17T10:06:38.637Z,23.60
2018-10-17T10:09:07.896Z,23.03
2018-10-17T10:11:36.072Z,19.50
2018-10-17T10:14:04.228Z,22.97
2018-10-17T10:16:32.378Z,26.07
2018-10-17T10:19:00.537Z,24.07
2018-10-17T10:21:28.689Z,25.20
2018-10-17T10:23:56.909Z,25.97
2018-10-17T10:26:25.021Z,21.17
2018-10-17T10:28:53.191Z,21.55
2018-10-17T10:31:21.337Z,21.73
2018-10-17T10:33:49.500Z,19.53
2018-10-17T10:36:17.753Z,22.97
2018-10-17T10:38:45.850Z,23.73
2018-10-17T10:41:13.993Z,27.23
2018-10-17T10:43:42.178Z,23.57
2018-10-17T10:46:10.535Z,21.40
2018-10-17T10:48:38.981Z,21.67
2018-10-17T10:51:08.101Z,19.40
2018-10-17T10:53:36.199Z,18.25
2018-10-17T10:56:04.958Z,20.70
2018-10-17T10:58:33.597Z,22.67
2018-10-17T11:01:01.784Z,23.27
2018-10-17T11:03:29.944Z,26.27
2018-10-17T11:05:58.091Z,20.35
2018-10-17T11:08:26.446Z,23.75
2018-10-17T11:10:55.002Z,23.57
2018-10-17T11:13:23.190Z,22.50
2018-10-17T11:15:51.355Z,23.38
2018-10-17T11:18:19.525Z,21.00
2018-10-17T11:20:47.670Z,23.95
2018-10-17T11:23:18.383Z,20.80
2018-10-17T11:25:46.458Z,23.75
2018-10-17T11:28:14.609Z,21.62
2018-10-17T11:30:42.753Z,16.75
2018-10-17T11:33:11.022Z,23.67
2018-10-17T11:35:39.082Z,21.10
2018-10-17T11:38:07.252Z,24.50
2018-10-17T11:40:35.416Z,21.68
2018-10-17T11:43:03.568Z,20.43
2018-10-17T11:45:31.712Z,18.15
2018-10-17T11:47:59.901Z,18.60
2018-10-17T11:50:28.070Z,18.90
2018-10-17T11:52:56.289Z,19.48
2018-10-17T11:55:24.413Z,22.00
2018-10-17T11:57:52.553Z,25.05
2018-10-17T12:00:20.739Z,26.37
2018-10-17T12:02:48.893Z,24.35
2018-10-17T12:05:17.279Z,24.23
2018-10-17T12:07:45.229Z,22.73
2018-10-17T12:10:13.398Z,20.60
2018-10-17T12:12:41.533Z,20.00
2018-10-17T12:15:13.046Z,17.75
2018-10-17T12:17:41.515Z,18.25
2018-10-17T12:20:11.716Z,23.45
2018-10-17T12:22:40.604Z,22.27
2018-10-17T12:25:09.205Z,19.50
2018-10-17T12:27:37.594Z,22.80
2018-10-17T12:30:07.429Z,22.17
2018-10-17T12:32:35.482Z,18.00
2018-10-17T12:35:03.768Z,20.60
2018-10-17T12:37:32.200Z,18.82
2018-10-17T12:40:00.378Z,20.90
2018-10-17T12:42:28.507Z,20.02
2018-10-17T12:44:56.737Z,31.02
2018-10-17T12:47:24.834Z,20.92
2018-10-17T12:49:53.032Z,19.92
2018-10-17T12:52:21.182Z,21.15
2018-10-17T12:54:49.636Z,19.42
2018-10-17T12:57:17.772Z,19.32
2018-10-17T12:59:45.920Z,22.70
2018-10-17T13:02:14.056Z,23.40
2018-10-17T13:04:42.217Z,16.93
2018-10-17T13:07:10.429Z,20.00
2018-10-17T13:09:38.677Z,20.65
2018-10-17T13:12:07.233Z,20.55
2018-10-17T13:14:35.377Z,20.32
2018-10-17T13:17:03.553Z,21.42
2018-10-17T13:19:31.702Z,20.57
2018-10-17T13:21:59.876Z,26.05
2018-10-17T13:24:28.046Z,21.55
2018-10-17T13:26:56.239Z,18.82
2018-10-17T13:29:24.403Z,19.55
2018-10-17T13:31:52.546Z,21.30
2018-10-17T13:34:20.746Z,23.62
2018-10-17T13:36:48.848Z,24.30
2018-10-17T13:39:17.003Z,22.85
2018-10-17T13:41:45.145Z,24.18
2018-10-17T13:44:15.347Z,22.55
2018-10-17T13:46:43.552Z,23.70
2018-10-17T13:49:11.817Z,25.75
2018-10-17T13:51:39.870Z,22.22
2018-10-17T13:54:08.054Z,20.90
2018-10-17T13:56:36.208Z,20.80
2018-10-17T13:59:04.372Z,21.12
2018-10-17T14:01:32.537Z,19.20
2018-10-17T14:04:00.712Z,21.30
2018-10-17T14:06:28.850Z,20.20
2018-10-17T14:08:57.067Z,21.12
2018-10-17T14:11:25.261Z,20.60
2018-10-17T14:13:53.373Z,21.87
2018-10-17T14:16:21.508Z,18.73
2018-10-17T14:18:49.661Z,19.70
2018-10-17T14:21:17.986Z,22.07
2018-10-17T14:23:46.058Z,21.95
2018-10-17T14:26:14.220Z,20.88
2018-10-17T14:28:42.381Z,19.85
2018-10-17T14:31:10.512Z,25.90
2018-10-17T14:33:38.679Z,19.32
2018-10-17T14:36:06.845Z,22.65
2018-10-17T14:38:35.011Z,20.68
2018-10-17T14:41:03.209Z,23.47
2018-10-17T14:43:31.364Z,19.27
2018-10-17T14:45:59.532Z,16.87
2018-10-17T14:48:27.797Z,19.23
2018-10-17T14:50:56.012Z,20.40
2018-10-17T14:53:24.141Z,22.93
2018-10-17T14:55:52.334Z,19.62
2018-10-17T14:58:20.481Z,18.40
2018-10-17T15:00:48.636Z,23.42
2018-10-17T15:03:16.872Z,27.85
2018-10-17T15:05:44.968Z,22.80
2018-10-17T15:08:13.138Z,20.60
2018-10-17T15:10:41.514Z,19.70
2018-10-17T15:13:09.554Z,17.75
2018-10-17T15:15:41.045Z,16.00
2018-10-17T15:18:09.522Z,18.05
2018-10-17T15:20:37.673Z,18.55
2018-10-17T15:23:05.909Z,25.68
2018-10-17T15:25:34.067Z,30.23
2018-10-17T15:28:02.434Z,24.43
2018-10-17T15:30:30.637Z,25.55
2018-10-17T15:32:58.865Z,23.12
2018-10-17T15:35:26.973Z,21.80
2018-10-17T15:37:56.464Z,19.50
2018-10-17T15:40:24.610Z,33.60
2018-10-17T15:42:52.807Z,27.83
2018-10-17T15:45:20.963Z,26.10
2018-10-17T15:47:50.325Z,32.53
2018-10-17T15:50:18.576Z,25.53
2018-10-17T15:52:46.834Z,23.73
2018-10-17T15:55:14.898Z,85.17
2018-10-17T15:57:43.075Z,31.33
2018-10-17T16:00:11.489Z,22.87
2018-10-17T16:02:39.679Z,21.83
2018-10-17T16:05:09.816Z,19.00
2018-10-17T16:07:38.000Z,18.53
2018-10-17T16:10:06.547Z,18.43
2018-10-17T16:12:35.261Z,19.87
2018-10-17T16:15:04.005Z,21.50
2018-10-17T16:17:32.181Z,21.10
2018-10-17T16:20:00.418Z,23.53
2018-10-17T16:22:29.099Z,33.97
2018-10-17T16:24:57.549Z,27.00
2018-10-17T16:27:26.275Z,23.40
2018-10-17T16:29:55.168Z,23.10
2018-10-17T16:32:23.743Z,19.10
2018-10-17T16:34:52.361Z,24.67
2018-10-17T16:37:20.757Z,26.63
2018-10-17T16:39:49.192Z,19.60
2018-10-17T16:42:17.720Z,21.13
2018-10-17T16:44:45.940Z,25.10
2018-10-17T16:47:14.096Z,22.53
2018-10-17T16:49:42.327Z,24.13
2018-10-17T16:52:10.759Z,20.13
2018-10-17T16:54:39.335Z,21.63
2018-10-17T16:57:09.704Z,23.30
2018-10-17T16:59:38.534Z,22.17
2018-10-17T17:03:10.891Z,22.63
2018-10-17T17:05:39.864Z,20.90
2018-10-17T17:08:08.337Z,27.57
2018-10-17T17:10:36.785Z,19.17
2018-10-17T17:13:06.260Z,25.53
2018-10-17T17:15:34.624Z,27.37
2018-10-17T17:18:02.915Z,23.87
2018-10-17T17:20:31.193Z,23.60
2018-10-17T17:22:59.452Z,21.37
2018-10-17T17:25:27.635Z,23.33
2018-10-17T17:27:56.176Z,27.53
2018-10-17T17:30:25.420Z,22.27
2018-10-17T17:32:54.660Z,23.20
2018-10-17T17:35:23.079Z,21.53
2018-10-17T17:37:51.776Z,23.27
2018-10-17T17:40:20.410Z,21.67
2018-10-17T17:42:49.021Z,43.97
2018-10-17T17:45:17.593Z,35.60
2018-10-17T17:47:46.147Z,30.63
2018-10-17T17:50:14.713Z,24.37
2018-10-17T17:52:43.761Z,28.93
2018-10-17T17:55:12.142Z,27.00
2018-10-17T17:57:40.603Z,23.87
2018-10-17T18:00:09.279Z,23.40
2018-10-17T18:02:37.733Z,22.70
2018-10-17T18:05:07.595Z,27.47
2018-10-17T18:07:36.882Z,25.03
2018-10-17T18:10:05.750Z,30.07
2018-10-17T18:12:33.924Z,28.27
2018-10-17T18:15:02.102Z,29.63
2018-10-17T18:17:30.354Z,27.13
2018-10-17T18:19:58.593Z,25.00
2018-10-17T18:22:26.837Z,27.83
2018-10-17T18:24:55.031Z,27.63
2018-10-17T18:27:23.284Z,29.33
2018-10-17T18:29:51.411Z,31.03
2018-10-17T18:32:19.572Z,30.43
2018-10-17T18:34:47.766Z,30.00
2018-10-17T18:37:16.108Z,34.50
2018-10-17T18:39:44.252Z,31.90
2018-10-17T18:42:12.482Z,31.73
2018-10-17T18:44:40.656Z,30.37
2018-10-17T18:47:09.059Z,31.97
2018-10-17T18:49:37.644Z,36.17
2018-10-17T18:52:06.442Z,32.90
2018-10-17T18:54:34.962Z,41.33
2018-10-17T18:57:03.421Z,45.60
2018-10-17T18:59:32.139Z,36.50
2018-10-17T19:02:01.050Z,37.80
2018-10-17T19:04:30.708Z,39.70
2018-10-17T19:06:59.322Z,38.80
2018-10-17T19:09:27.706Z,40.27
2018-10-17T19:11:56.313Z,38.93
2018-10-17T19:14:25.004Z,35.00
2018-10-17T19:16:53.590Z,41.30
2018-10-17T19:19:23.116Z,42.67
2018-10-17T19:21:51.520Z,39.20
2018-10-17T19:24:20.125Z,33.40
2018-10-17T19:26:48.481Z,36.97
2018-10-17T19:29:17.448Z,40.47
2018-10-17T19:31:45.636Z,39.40
2018-10-17T19:34:13.805Z,37.40
2018-10-17T19:36:42.061Z,38.03
2018-10-17T19:39:11.755Z,36.00
2018-10-17T19:41:40.011Z,41.80
2018-10-17T19:44:08.406Z,35.90
2018-10-17T19:46:36.656Z,44.33
2018-10-17T19:49:05.440Z,40.90
2018-10-17T19:51:33.667Z,45.70
2018-10-17T19:54:01.860Z,42.43
2018-10-17T19:56:30.092Z,42.87
2018-10-17T19:58:58.319Z,40.90
2018-10-17T20:01:26.568Z,36.97
2018-10-17T20:03:54.718Z,42.27
2018-10-17T20:06:23.113Z,42.40
2018-10-17T20:08:51.401Z,40.80
2018-10-17T20:11:19.561Z,50.33
2018-10-17T20:13:47.741Z,45.10
2018-10-17T20:16:16.013Z,40.80
2018-10-17T20:18:44.184Z,37.80
2018-10-17T20:21:12.422Z,38.40
2018-10-17T20:23:40.537Z,41.03
2018-10-17T20:26:08.692Z,36.00
2018-10-17T20:28:36.857Z,36.43
2018-10-17T20:31:05.021Z,37.27
2018-10-17T20:33:33.197Z,38.03
2018-10-17T20:36:01.368Z,38.23
2018-10-17T20:38:29.524Z,41.07
2018-10-17T20:40:57.688Z,44.00
2018-10-17T20:43:25.901Z,39.87
2018-10-17T20:45:54.072Z,37.97
2018-10-17T20:48:22.326Z,42.40
2018-10-17T20:50:50.492Z,38.47
2018-10-17T20:53:18.672Z,38.47
2018-10-17T20:55:46.867Z,39.87
2018-10-17T20:58:15.223Z,38.77
